TFM - Tactical Decision Aid
ID: Runway Winds: CIG/VIS Threshold:

KMSP - Minneapolis-St Paul, MN, US

Updated at: 0237 UTC 26 Apr 2019
Latest TAF at: 0222 UTC 26 Apr 2019

TAF Board

Time0153Z 26/03Z 26/04Z 26/05Z 26/06Z 26/07Z 26/08Z 26/09Z 26/10Z 26/11Z 26/12Z 26/13Z 26/14Z 26/15Z>>
Type OBS PRVL PRVL PRVL PRVL PRVL PRVL PRVL PRVL PRVL PRVL PRVL PRVL PRVL
VIS 10 >6 >6 >6 >6 >6 >6 >6 >6 >6 >6 >6 >6 >6
CIG -- -- -- -- -- -- -- -- -- -- -- -- -- --
Cover SCT SCT SKC SKC SKC SKC SKC SKC SKC SKC SKC SKC SKC SKC
FltCat VFR VFR VFR VFR VFR VFR VFR VFR VFR VFR VFR VFR VFR VFR
WX -- -- -- -- -- -- -- -- -- -- -- -- -- --
WDir 320 320 310 310 310 310 310 310 310 310 310 310 310 320
WSpd 14 15 11 11 11 11 11 11 11 11 11 11 11 14
WGst -- 20 -- -- -- -- -- -- -- -- -- -- -- 24

TDA Impact Legend

  None Marginal Slight Moderate High
Visibility (sm) >5 3≤X≤5 1≤X<3 0.5≤X<1 <0.5
Ceiling (100 ft) >30 10≤X≤30 4≤X<10 2≤X<4 <2
Wind Speed (kt) <15 15≤X<25 25≤X<30 ≥30
Wind Gust (kt) <15 15≤X<25 25≤X<35 ≥35
Weather No Wx Reported VCTS -TS,-FZRA TS,FZRA +TS,+FZRA
TAF
KMSP 260222Z 2602/2706 32015G20KT P6SM SCT100
  FM260400 31011KT P6SM SKC
  FM261500 32014G24KT P6SM SKC
  FM262300 33011KT P6SM SKC
  FM270400 06005KT P6SM SCT150


METAR
KMSP 260153Z 32014KT 10SM FEW120 SCT250 17/M02 A2986 RMK AO2 PK WND 32026/0122 SLP111 T01671022
KMSP 260053Z 31019G30KT 10SM FEW120 SCT250 18/M03 A2984 RMK AO2 PK WND 31032/0039 SLP102 T01781028
KMSP 252353Z 31020G30KT 10SM SCT250 20/M04 A2982 RMK AO2 PK WND 30030/2345 SLP096 T02001039 10222 20183 53002

Radar Display
Forecast Discussion